Time;durP1;ratioP1;P1;durP2;ratioP2;P2;SDS_P1;SDS_P2;PMS_P1;PMS_P2;Temp;Humidity;BMP_temperature;BMP_pressure;BME280_temperature;BME280_humidity;BME280_pressure;Samples;Min_cycle;Max_cycle;Signal;HPM_P1;HPM_P2
2023/04/05 00:01:48;;;;;;;10.88;7.58;;;;;;;9.77;69.68;100304.41;1737179;82;21224;-57
2023/04/05 00:04:56;;;;;;;12.50;7.45;;;;;;;9.79;69.68;100304.61;1737060;82;21185;-56
2023/04/05 00:08:12;;;;;;;9.85;7.60;;;;;;;9.81;69.74;100301.20;1737222;82;21183;-57
2023/04/05 00:11:13;;;;;;;9.70;7.72;;;;;;;9.81;69.72;100298.46;1737151;81;21199;-57
2023/04/05 00:14:19;;;;;;;9.65;7.67;;;;;;;9.84;69.74;100309.05;1737378;82;21319;-57
2023/04/05 00:17:19;;;;;;;9.70;6.80;;;;;;;9.84;69.78;100299.48;1737452;82;21255;-57
2023/04/05 00:20:28;;;;;;;9.28;6.80;;;;;;;9.84;69.80;100299.48;1745102;80;21308;-56
2023/04/05 00:23:38;;;;;;;10.05;7.22;;;;;;;9.85;69.84;100299.80;1771009;80;21176;-57
2023/04/05 00:26:43;;;;;;;9.63;6.90;;;;;;;9.88;69.90;100294.49;1771634;79;21256;-57
2023/04/05 00:29:48;;;;;;;10.20;6.78;;;;;;;9.91;69.94;100296.91;1771119;81;21162;-57
2023/04/05 00:32:58;;;;;;;9.40;6.97;;;;;;;9.92;69.96;100291.77;1770987;80;21315;-57
2023/04/05 00:36:17;;;;;;;9.70;7.17;;;;;;;9.93;69.98;100290.22;1771366;79;21185;-56
2023/04/05 00:39:23;;;;;;;12.47;6.97;;;;;;;9.95;70.03;100293.65;1771172;81;21323;-57
2023/04/05 00:42:29;;;;;;;11.22;7.45;;;;;;;9.96;70.03;100289.88;1771166;81;21232;-56
2023/04/05 00:45:35;;;;;;;9.68;7.37;;;;;;;9.94;69.97;100288.36;1771177;81;21169;-56
2023/04/05 00:48:41;;;;;;;11.88;7.35;;;;;;;9.92;69.92;100292.63;1771072;81;21228;-57
2023/04/05 00:51:47;;;;;;;10.80;7.83;;;;;;;9.91;69.97;100297.73;1770939;81;21576;-56
2023/04/05 00:54:52;;;;;;;12.82;8.30;;;;;;;9.93;70.07;100303.89;1771257;80;21209;-57
2023/04/05 00:57:59;;;;;;;13.62;8.43;;;;;;;9.95;70.12;100299.11;1771448;80;21256;-56
2023/04/05 01:01:22;;;;;;;11.15;8.43;;;;;;;9.97;70.15;100297.03;1771024;81;21209;-57
2023/04/05 01:04:32;;;;;;;12.15;7.97;;;;;;;10.01;70.22;100296.18;1763812;81;21240;-55
2023/04/05 01:08:09;;;;;;;10.95;7.28;;;;;;;10.00;70.26;100289.88;1771309;79;21277;-57
2023/04/05 01:11:15;;;;;;;13.03;7.30;;;;;;;10.03;70.24;100281.33;1771129;81;21194;-56
2023/04/05 01:14:21;;;;;;;11.70;7.92;;;;;;;10.03;70.28;100286.80;1771138;79;21232;-57
2023/04/05 01:17:28;;;;;;;11.28;8.08;;;;;;;10.01;70.25;100271.06;1771717;80;21205;-57
2023/04/05 01:20:41;;;;;;;11.50;8.20;;;;;;;10.02;70.27;100272.77;1771814;80;21335;-57
2023/04/05 01:24:13;;;;;;;11.08;7.95;;;;;;;10.02;70.32;100266.46;1770909;80;21197;-59
2023/04/05 01:27:46;;;;;;;11.20;8.25;;;;;;;9.98;70.22;100256.38;1771505;80;21351;-57
2023/04/05 01:31:11;;;;;;;16.32;9.88;;;;;;;9.95;70.28;100257.23;1771218;79;21209;-57
2023/04/05 01:34:49;;;;;;;10.98;7.08;;;;;;;9.95;70.28;100254.00;1771001;79;21197;-57
2023/04/05 01:38:00;;;;;;;11.40;8.58;;;;;;;9.91;70.38;100249.89;1771180;80;21342;-58
2023/04/05 01:41:06;;;;;;;10.72;7.72;;;;;;;9.94;70.47;100244.06;1771167;80;21879;-57
2023/04/05 01:44:13;;;;;;;11.38;7.85;;;;;;;9.93;70.48;100242.88;1771763;80;21213;-58
2023/04/05 01:47:19;;;;;;;10.78;7.75;;;;;;;9.94;70.53;100235.86;1770857;80;21197;-57
2023/04/05 01:50:26;;;;;;;12.53;8.90;;;;;;;9.96;70.60;100241.16;1764165;79;21169;-57
2023/04/05 01:53:33;;;;;;;15.03;9.10;;;;;;;9.97;70.62;100229.21;1770958;79;21181;-57
2023/04/05 01:56:40;;;;;;;11.97;8.25;;;;;;;9.96;70.60;100220.14;1770932;80;21212;-56
2023/04/05 01:59:45;;;;;;;12.45;8.18;;;;;;;9.97;70.63;100217.73;1770849;81;21191;-57
2023/04/05 02:02:51;;;;;;;13.75;9.25;;;;;;;9.96;70.65;100214.67;1770723;79;21189;-57
2023/04/05 02:05:57;;;;;;;13.15;9.38;;;;;;;9.96;70.67;100211.94;1771040;80;21244;-57
2023/04/05 02:09:05;;;;;;;10.43;8.13;;;;;;;9.95;70.66;100205.28;1771010;80;21161;-57
2023/04/05 02:12:10;;;;;;;11.33;8.60;;;;;;;9.94;70.65;100207.16;1771188;80;21249;-58
2023/04/05 02:15:17;;;;;;;11.97;8.53;;;;;;;9.92;70.67;100211.97;1770744;80;21249;-57
2023/04/05 02:18:30;;;;;;;10.48;7.87;;;;;;;9.91;70.69;100209.41;1771093;80;21174;-57
2023/04/05 02:21:31;;;;;;;11.68;8.38;;;;;;;9.89;70.73;100201.39;1771208;80;21217;-57
2023/04/05 02:24:38;;;;;;;10.15;7.58;;;;;;;9.89;70.74;100197.29;1771229;79;21216;-57
2023/04/05 02:27:44;;;;;;;13.72;8.95;;;;;;;9.88;70.82;100201.03;1770990;79;21224;-57
2023/04/05 02:30:52;;;;;;;15.53;8.68;;;;;;;9.91;70.92;100210.24;1771284;80;21217;-58
2023/04/05 02:33:59;;;;;;;12.70;8.63;;;;;;;9.95;71.01;100203.92;1770987;80;21385;-58
2023/04/05 02:37:06;;;;;;;11.43;8.53;;;;;;;9.99;71.04;100203.37;1770984;80;21189;-57
2023/04/05 02:40:20;;;;;;;12.93;9.20;;;;;;;10.01;71.05;100201.33;1771093;80;21386;-57
2023/04/05 02:43:32;;;;;;;13.13;9.25;;;;;;;10.05;71.07;100205.41;1771435;80;21557;-56
2023/04/05 02:46:41;;;;;;;13.30;9.40;;;;;;;10.08;71.10;100204.25;1770992;80;21389;-57
2023/04/05 02:49:50;;;;;;;11.25;8.15;;;;;;;10.10;71.03;100204.39;1763844;81;21248;-57
2023/04/05 02:52:58;;;;;;;14.25;9.10;;;;;;;10.10;71.02;100205.77;1771552;80;21229;-56
2023/04/05 02:56:06;;;;;;;16.23;9.68;;;;;;;10.10;71.01;100209.87;1770745;80;21202;-57
2023/04/05 02:59:12;;;;;;;13.50;8.35;;;;;;;10.09;71.02;100213.64;1771193;80;21201;-56
2023/04/05 03:02:18;;;;;;;16.17;9.80;;;;;;;10.10;71.08;100203.03;1763575;80;21245;-56
2023/04/05 03:05:24;;;;;;;14.60;9.68;;;;;;;10.11;71.06;100202.02;1763589;79;21232;-56
2023/04/05 03:08:31;;;;;;;12.00;8.95;;;;;;;10.12;71.07;100200.98;1770845;81;21173;-56
2023/04/05 03:11:37;;;;;;;13.65;9.33;;;;;;;10.10;71.02;100197.56;1771150;81;21363;-56
2023/04/05 03:14:44;;;;;;;12.18;8.85;;;;;;;10.10;71.04;100202.20;1770987;79;21256;-57
2023/04/05 03:17:51;;;;;;;15.08;9.80;;;;;;;10.09;71.02;100208.67;1770937;81;21279;-56
2023/04/05 03:20:57;;;;;;;13.72;10.43;;;;;;;10.08;71.04;100206.48;1770767;80;21194;-56
2023/04/05 03:24:05;;;;;;;15.58;10.68;;;;;;;10.06;71.01;100205.77;1768525;81;21197;-57
2023/04/05 03:27:13;;;;;;;15.38;10.20;;;;;;;10.06;71.05;100200.80;1763740;81;21343;-57
2023/04/05 03:30:22;;;;;;;16.85;10.40;;;;;;;10.04;71.07;100203.71;1771236;80;21323;-56
2023/04/05 03:33:31;;;;;;;16.23;10.40;;;;;;;10.04;71.09;100194.14;1771558;80;21189;-55
2023/04/05 03:36:41;;;;;;;15.88;10.55;;;;;;;10.02;71.07;100189.35;1771308;80;21166;-58
2023/04/05 03:39:49;;;;;;;18.87;10.13;;;;;;;10.00;71.07;100185.97;1771769;81;21220;-58
2023/04/05 03:42:57;;;;;;;17.50;10.18;;;;;;;9.98;71.10;100179.81;1771397;79;21263;-55
2023/04/05 03:46:03;;;;;;;16.17;10.80;;;;;;;9.98;71.13;100177.08;1771253;80;21257;-55
2023/04/05 03:49:10;;;;;;;13.43;10.00;;;;;;;9.98;71.12;100174.84;1771310;79;21323;-56
2023/04/05 03:52:17;;;;;;;14.40;9.90;;;;;;;9.96;71.13;100170.06;1771573;81;21331;-57
2023/04/05 03:55:24;;;;;;;19.12;12.43;;;;;;;9.98;71.19;100172.98;1771863;80;21212;-56
2023/04/05 03:58:31;;;;;;;18.45;11.12;;;;;;;10.00;71.24;100173.66;1771689;79;21205;-56
2023/04/05 04:01:37;;;;;;;20.68;11.95;;;;;;;10.03;71.24;100180.14;1771374;80;21197;-56
2023/04/05 04:04:46;;;;;;;13.70;10.08;;;;;;;10.03;71.27;100185.61;1771525;80;21311;-56
2023/04/05 04:07:55;;;;;;;16.85;11.55;;;;;;;10.07;71.32;100188.81;1771300;80;21201;-57
2023/04/05 04:11:02;;;;;;;14.70;10.82;;;;;;;10.07;71.24;100197.92;1771662;80;21189;-56
2023/04/05 04:14:11;;;;;;;17.42;10.88;;;;;;;10.06;71.27;100190.72;1770982;80;21162;-56
2023/04/05 04:17:36;;;;;;;23.50;15.45;;;;;;;10.11;71.35;100205.26;1771285;80;21178;-56
2023/04/05 04:20:57;;;;;;;14.40;10.38;;;;;;;10.15;71.38;100201.98;1771327;80;21198;-57
2023/04/05 04:24:09;;;;;;;15.95;10.75;;;;;;;10.22;71.40;100198.89;1771748;80;21182;-56
2023/04/05 04:27:19;;;;;;;16.40;10.35;;;;;;;10.28;71.41;100199.55;1754871;80;21181;-56
2023/04/05 04:30:42;;;;;;;14.18;10.23;;;;;;;10.32;71.37;100190.47;1770225;80;21232;-57
2023/04/05 04:34:02;;;;;;;16.52;11.45;;;;;;;10.36;71.35;100181.72;1771180;80;21145;-56
2023/04/05 04:37:21;;;;;;;15.53;10.45;;;;;;;10.39;71.35;100188.20;1770369;81;21161;-56
2023/04/05 04:40:26;;;;;;;15.32;11.10;;;;;;;10.43;71.32;100188.16;1769867;79;21319;-56
2023/04/05 04:43:41;;;;;;;13.72;10.18;;;;;;;10.47;71.36;100179.94;1771330;80;21237;-56
2023/04/05 04:46:56;;;;;;;13.35;10.18;;;;;;;10.53;71.39;100173.74;1768027;80;21237;-56
2023/04/05 04:50:24;;;;;;;17.45;11.03;;;;;;;10.61;71.40;100169.27;1771276;81;21229;-57
2023/04/05 04:53:32;;;;;;;15.25;11.48;;;;;;;10.66;71.39;100175.02;1778533;79;21694;-56
2023/04/05 04:56:38;;;;;;;19.17;12.18;;;;;;;10.69;71.30;100162.36;1778723;78;21682;-58
2023/04/05 04:59:47;;;;;;;23.55;14.87;;;;;;;10.70;71.23;100164.05;1800019;79;21304;-57
2023/04/05 05:02:56;;;;;;;20.40;13.85;;;;;;;10.68;71.18;100153.80;1803458;79;21238;-57
2023/04/05 05:06:05;;;;;;;18.42;13.18;;;;;;;10.66;71.15;100149.88;1803477;79;21326;-56
2023/04/05 05:09:11;;;;;;;14.87;12.45;;;;;;;10.67;71.16;100142.52;1796806;79;21337;-57
2023/04/05 05:12:20;;;;;;;16.93;13.10;;;;;;;10.67;71.16;100143.38;1772783;79;21229;-58
2023/04/05 05:15:32;;;;;;;;;;;;;;;10.66;71.17;100134.81;1773671;81;21198;-59
2023/04/05 05:18:40;;;;;;;17.45;11.65;;;;;;;10.66;71.14;100137.55;1763716;80;20206;-57
2023/04/05 05:21:52;;;;;;;22.73;14.20;;;;;;;10.64;71.14;100126.47;1735923;82;21201;-56
2023/04/05 05:25:01;;;;;;;19.23;13.93;;;;;;;10.59;71.14;100116.90;1802644;79;21396;-57
2023/04/05 05:28:08;;;;;;;22.02;14.93;;;;;;;10.58;71.19;100114.34;1802136;78;21272;-59
2023/04/05 05:31:16;;;;;;;18.00;13.70;;;;;;;10.61;71.24;100111.24;1802609;79;21229;-56
2023/04/05 05:34:23;;;;;;;21.73;13.58;;;;;;;10.67;71.28;100100.09;1780162;79;21363;-56
2023/04/05 05:37:38;;;;;;;21.30;14.00;;;;;;;10.70;71.25;100098.35;1761121;81;21221;-56
2023/04/05 05:40:44;;;;;;;24.72;16.17;;;;;;;10.76;71.36;100090.27;1760767;81;21185;-56
2023/04/05 05:43:52;;;;;;;23.62;15.72;;;;;;;10.87;71.50;100085.71;1761224;81;21268;-56
2023/04/05 05:46:58;;;;;;;70.28;44.38;;;;;;;10.97;71.57;100086.82;1761922;81;21209;-56
2023/04/05 05:50:05;;;;;;;24.60;15.53;;;;;;;11.11;71.66;100094.21;1761455;81;21197;-56
2023/04/05 05:53:12;;;;;;;22.02;14.60;;;;;;;11.24;71.66;100091.69;1761328;80;21236;-56
2023/04/05 05:56:20;;;;;;;21.27;14.38;;;;;;;11.40;71.69;100085.49;1761340;81;21452;-56
2023/04/05 05:59:28;;;;;;;18.98;13.45;;;;;;;11.57;71.75;100082.92;1770531;79;21323;-57
2023/04/05 06:02:33;;;;;;;16.12;12.47;;;;;;;11.77;71.82;100077.20;1770732;79;21233;-58
2023/04/05 06:05:40;;;;;;;18.40;12.70;;;;;;;11.97;71.82;100074.73;1771274;79;21268;-57
2023/04/05 06:08:48;;;;;;;19.57;11.93;;;;;;;12.16;71.82;100070.52;1771021;81;21173;-57
2023/04/05 06:12:00;;;;;;;17.05;12.80;;;;;;;12.35;71.79;100068.00;1771168;79;21193;-56
2023/04/05 06:15:07;;;;;;;17.17;12.88;;;;;;;12.52;71.72;100062.58;1770569;79;21756;-57
2023/04/05 06:18:13;;;;;;;16.65;12.43;;;;;;;12.68;71.67;100054.08;1770188;80;21165;-57
2023/04/05 06:21:18;;;;;;;17.15;12.15;;;;;;;12.84;71.60;100063.93;1770040;81;21280;-57
2023/04/05 06:24:30;;;;;;;18.95;12.10;;;;;;;13.00;71.58;100057.64;1776668;79;21196;-58
2023/04/05 06:27:34;;;;;;;21.95;15.40;;;;;;;13.15;71.53;100065.27;1768046;80;21209;-57
2023/04/05 06:30:39;;;;;;;17.15;12.65;;;;;;;13.31;71.52;100057.23;1796656;79;21182;-57
2023/04/05 06:33:45;;;;;;;18.82;12.43;;;;;;;13.45;71.44;100059.88;1772431;79;21706;-57
2023/04/05 06:36:51;;;;;;;21.42;11.18;;;;;;;13.56;71.37;100052.12;1801107;79;21241;-56
2023/04/05 06:39:58;;;;;;;14.23;10.50;;;;;;;13.68;71.38;100058.22;1786315;78;21281;-56
2023/04/05 06:43:04;;;;;;;14.10;9.73;;;;;;;13.84;71.41;100045.50;1734257;82;21252;-56
2023/04/05 06:46:11;;;;;;;15.80;9.60;;;;;;;13.97;71.30;100033.69;1738858;81;21262;-58
2023/04/05 06:49:17;;;;;;;12.68;9.08;;;;;;;14.07;71.19;100031.38;1720360;83;21773;-59
2023/04/05 06:52:23;;;;;;;12.07;8.73;;;;;;;14.19;71.21;100032.49;1719988;83;21230;-58
2023/04/05 06:55:30;;;;;;;16.05;8.90;;;;;;;14.31;71.21;100040.48;1719480;83;21269;-59
2023/04/05 06:58:38;;;;;;;13.30;8.90;;;;;;;14.42;71.10;100026.97;1719720;83;21384;-60
2023/04/05 07:01:37;;;;;;;15.70;9.30;;;;;;;14.47;70.92;100030.47;1719993;82;21591;-58
2023/04/05 07:04:35;;;;;;;;;;;;;;;14.54;70.83;100032.71;1722551;82;21218;-58
2023/04/05 07:07:43;;;;;;;11.75;8.10;;;;;;;14.59;70.73;100039.79;1734507;81;20187;-58
2023/04/05 07:10:49;;;;;;;11.03;8.30;;;;;;;14.62;70.66;100043.50;1726767;83;21249;-58
2023/04/05 07:13:57;;;;;;;10.32;8.20;;;;;;;14.64;70.52;100051.03;1729153;82;21270;-57
2023/04/05 07:17:03;;;;;;;11.75;8.75;;;;;;;14.69;70.50;100054.02;1730777;82;21193;-58
2023/04/05 07:20:13;;;;;;;15.70;9.00;;;;;;;14.74;70.38;100050.95;1774719;79;21217;-58
2023/04/05 07:23:20;;;;;;;13.03;8.13;;;;;;;14.78;70.27;100054.97;1762960;81;21727;-59
2023/04/05 07:26:27;;;;;;;11.38;8.93;;;;;;;14.82;70.23;100049.38;1775540;79;21244;-60
2023/04/05 07:29:37;;;;;;;11.60;8.50;;;;;;;14.87;70.18;100057.01;1801165;78;21181;-58
2023/04/05 07:32:43;;;;;;;11.08;8.40;;;;;;;14.95;70.17;100054.88;1765266;80;21201;-59
2023/04/05 07:35:50;;;;;;;12.33;8.53;;;;;;;15.03;70.10;100040.87;1746001;81;21329;-59
2023/04/05 07:38:57;;;;;;;15.93;8.48;;;;;;;15.12;69.90;100042.04;1734168;82;21200;-59
2023/04/05 07:42:02;;;;;;;13.00;8.35;;;;;;;15.20;69.87;100039.06;1739874;81;21308;-59
2023/04/05 07:45:09;;;;;;;15.15;9.78;;;;;;;15.33;69.91;100023.88;1793655;79;21314;-57
2023/04/05 07:48:15;;;;;;;12.13;9.40;;;;;;;15.46;69.88;100030.23;1802182;78;21221;-57
2023/04/05 07:51:22;;;;;;;12.07;9.20;;;;;;;15.63;69.79;100024.59;1792386;79;21424;-60
2023/04/05 07:54:28;;;;;;;12.78;9.60;;;;;;;15.77;69.69;100006.91;1792674;79;21378;-59
2023/04/05 07:57:34;;;;;;;14.13;10.15;;;;;;;15.79;69.43;100019.94;1801798;78;21252;-58
2023/04/05 08:00:41;;;;;;;10.82;8.55;;;;;;;15.94;69.43;100020.53;1801941;79;21177;-59
2023/04/05 08:03:47;;;;;;;12.05;9.10;;;;;;;16.17;69.54;100017.23;1802399;79;21194;-61
2023/04/05 08:06:55;;;;;;;18.32;8.95;;;;;;;16.35;69.37;100013.19;1802229;78;21756;-60
2023/04/05 08:10:02;;;;;;;15.55;8.38;;;;;;;16.49;69.20;100011.23;1759145;81;21196;-60
2023/04/05 08:13:08;;;;;;;13.03;8.63;;;;;;;16.65;69.11;100007.38;1721070;82;21229;-60
2023/04/05 08:16:14;;;;;;;11.90;7.90;;;;;;;16.73;68.93;100014.57;1718169;82;21596;-63
2023/04/05 08:19:21;;;;;;;10.13;8.15;;;;;;;16.80;68.88;99996.00;1719985;82;21263;-60
2023/04/05 08:22:28;;;;;;;9.48;7.33;;;;;;;16.78;68.69;100003.13;1771519;79;21192;-60
2023/04/05 08:25:35;;;;;;;11.48;7.30;;;;;;;16.81;68.63;100000.47;1762895;80;21801;-59
2023/04/05 08:28:41;;;;;;;11.33;8.05;;;;;;;16.83;68.61;100005.22;1769480;79;21766;-59
2023/04/05 08:31:47;;;;;;;11.18;7.50;;;;;;;16.81;68.40;99993.56;1768432;79;21231;-58
2023/04/05 08:34:54;;;;;;;12.93;7.17;;;;;;;16.77;68.37;99995.06;1769916;79;21200;-58
2023/04/05 08:38:01;;;;;;;9.58;6.83;;;;;;;16.81;68.46;100001.30;1791739;79;21302;-59
2023/04/05 08:41:27;;;;;;;9.43;6.70;;;;;;;16.94;68.60;100002.58;1792946;79;21189;-59
2023/04/05 08:44:35;;;;;;;11.10;7.42;;;;;;;17.05;68.52;100001.84;1769626;80;21216;-59
2023/04/05 08:47:43;;;;;;;9.05;7.17;;;;;;;17.08;68.29;100000.52;1769389;80;21200;-58
2023/04/05 08:50:49;;;;;;;10.60;6.42;;;;;;;17.08;68.25;99993.61;1770591;81;21750;-60
2023/04/05 08:53:59;;;;;;;8.83;6.72;;;;;;;17.13;68.23;99990.48;1771086;79;21201;-59
2023/04/05 08:57:08;;;;;;;9.28;6.47;;;;;;;17.19;68.24;99979.03;1770774;80;21245;-57
2023/04/05 09:00:18;;;;;;;10.78;5.87;;;;;;;17.22;68.10;99972.52;1771230;80;21264;-59
2023/04/05 09:03:26;;;;;;;11.33;6.53;;;;;;;17.24;68.17;99977.81;1770399;79;21193;-57
2023/04/05 09:06:32;;;;;;;10.63;6.28;;;;;;;17.39;68.24;99979.69;1777078;79;21337;-57
2023/04/05 09:09:40;;;;;;;13.60;6.28;;;;;;;17.54;68.23;99978.79;1712191;82;21267;-57
2023/04/05 09:12:46;;;;;;;16.12;6.60;;;;;;;17.66;68.07;99978.34;1721486;83;21735;-56
2023/04/05 09:15:51;;;;;;;12.75;6.30;;;;;;;17.77;67.97;99974.80;1727270;81;21214;-56
2023/04/05 09:18:59;;;;;;;7.97;5.90;;;;;;;17.90;67.90;99971.30;1798045;79;21188;-58
2023/04/05 09:22:20;;;;;;;12.88;5.87;;;;;;;18.02;67.73;99962.20;1797846;79;21168;-57
2023/04/05 09:25:51;;;;;;;11.20;5.78;;;;;;;18.14;67.64;99958.41;1775849;78;21181;-57
2023/04/05 09:28:57;;;;;;;10.25;6.53;;;;;;;18.25;67.46;99961.75;1769846;80;21904;-58
2023/04/05 09:32:03;;;;;;;10.20;6.50;;;;;;;18.24;67.13;99953.68;1767244;79;21209;-58
2023/04/05 09:35:12;;;;;;;8.85;6.10;;;;;;;18.20;66.83;99951.95;1770272;80;21197;-60
2023/04/05 09:38:18;;;;;;;10.53;6.65;;;;;;;18.12;66.65;99953.66;1765526;79;21582;-58
2023/04/05 09:41:25;;;;;;;14.00;6.00;;;;;;;18.14;66.53;99945.94;1782939;79;21201;-57
2023/04/05 09:44:30;;;;;;;10.23;6.35;;;;;;;18.09;66.33;99949.98;1788844;79;21601;-58
2023/04/05 09:47:40;;;;;;;9.78;6.30;;;;;;;18.03;66.20;99948.68;1787888;79;21201;-59
2023/04/05 09:50:48;;;;;;;15.18;6.58;;;;;;;18.00;66.16;99948.59;1782731;79;21757;-61
2023/04/05 09:54:16;;;;;;;11.18;6.92;;;;;;;18.01;66.11;99946.15;1781487;79;21268;-56
2023/04/05 09:57:25;;;;;;;9.45;6.15;;;;;;;18.02;65.93;99945.06;1777037;79;21244;-56
2023/04/05 10:00:31;;;;;;;8.88;5.85;;;;;;;18.06;65.89;99948.21;1789073;79;21764;-59
2023/04/05 10:03:39;;;;;;;11.43;6.03;;;;;;;18.19;65.95;99946.64;1787938;79;21244;-60
2023/04/05 10:06:49;;;;;;;9.70;6.22;;;;;;;18.30;65.82;99941.11;1792649;79;21244;-56
2023/04/05 10:09:57;;;;;;;12.43;6.83;;;;;;;18.42;65.83;99955.91;1780438;79;21165;-56
2023/04/05 10:13:03;;;;;;;10.58;6.28;;;;;;;18.53;65.75;99958.39;1781579;78;21181;-57
2023/04/05 10:16:10;;;;;;;9.33;5.70;;;;;;;18.64;65.60;99959.81;1780005;79;21630;-56
2023/04/05 10:19:21;;;;;;;12.90;6.83;;;;;;;18.80;65.58;99952.72;1775240;79;21301;-56
2023/04/05 10:22:34;;;;;;;11.80;6.30;;;;;;;18.89;65.37;99957.67;1788825;78;21212;-58
2023/04/05 10:26:05;;;;;;;10.45;6.12;;;;;;;18.95;65.16;99953.93;1785725;78;21182;-57
2023/04/05 10:29:23;;;;;;;13.62;6.45;;;;;;;19.06;65.02;99949.46;1783297;79;21209;-57
2023/04/05 10:32:56;;;;;;;10.35;6.70;;;;;;;19.13;64.83;99937.70;1781086;79;21344;-59
2023/04/05 10:36:22;;;;;;;10.53;6.50;;;;;;;19.23;64.85;99941.55;1783557;79;21256;-58
2023/04/05 10:39:38;;;;;;;12.80;6.20;;;;;;;19.34;64.60;99957.39;1785008;79;21265;-58
2023/04/05 10:42:52;;;;;;;8.28;5.67;;;;;;;19.50;64.47;99933.61;1785102;79;21786;-61
2023/04/05 10:46:01;;;;;;;16.67;10.23;;;;;;;19.60;64.28;99942.14;1786634;79;21342;-60
2023/04/05 10:49:40;;;;;;;10.48;5.97;;;;;;;19.76;64.19;99941.38;1776986;79;21217;-59
2023/04/05 10:52:49;;;;;;;10.82;5.53;;;;;;;19.90;64.03;99946.13;1786508;79;21331;-60
2023/04/05 10:55:55;;;;;;;8.50;5.08;;;;;;;19.98;63.68;99938.22;1774065;79;21231;-57
2023/04/05 10:59:02;;;;;;;11.57;4.92;;;;;;;20.12;63.58;99939.61;1760141;80;21820;-59
2023/04/05 11:02:08;;;;;;;13.00;5.30;;;;;;;20.27;63.43;99946.04;1750480;82;21218;-58
2023/04/05 11:05:17;;;;;;;20.62;4.75;;;;;;;20.30;63.02;99936.66;1705020;84;22082;-58
2023/04/05 11:08:22;;;;;;;15.53;5.53;;;;;;;20.33;62.93;99943.64;1707063;82;21241;-60
2023/04/05 11:11:30;;;;;;;15.10;4.87;;;;;;;20.45;62.81;99939.73;1722355;82;21226;-60
2023/04/05 11:14:44;;;;;;;15.18;5.03;;;;;;;20.57;62.61;99928.52;1749955;81;21705;-59
2023/04/05 11:17:50;;;;;;;10.60;4.00;;;;;;;20.60;62.26;99939.99;1700192;82;21260;-59
2023/04/05 11:21:14;;;;;;;16.45;5.70;;;;;;;20.52;61.78;99931.20;1737703;82;21186;-60
2023/04/05 11:24:21;;;;;;;14.23;6.10;;;;;;;20.39;61.57;99935.16;1720413;82;21730;-59
2023/04/05 11:27:40;;;;;;;8.18;5.17;;;;;;;20.35;61.55;99930.35;1726613;82;21591;-60
2023/04/05 11:30:57;;;;;;;13.05;4.58;;;;;;;20.39;61.48;99928.77;1718600;82;21218;-61
2023/04/05 11:34:15;;;;;;;14.43;4.62;;;;;;;20.40;61.35;99920.72;1738010;82;21763;-60
2023/04/05 11:37:22;;;;;;;10.38;4.45;;;;;;;20.55;61.34;99922.39;1703783;81;21268;-61
2023/04/05 11:40:42;;;;;;;9.30;4.25;;;;;;;20.60;61.10;99923.31;1775964;79;21206;-61
2023/04/05 11:43:50;;;;;;;12.33;4.28;;;;;;;20.68;60.91;99925.67;1777097;79;21675;-60
2023/04/05 11:46:56;;;;;;;8.55;4.30;;;;;;;20.76;60.59;99922.47;1801049;79;21364;-61
2023/04/05 11:50:02;;;;;;;16.40;5.80;;;;;;;20.79;60.32;99900.24;1734270;82;21248;-63
2023/04/05 11:53:25;;;;;;;9.03;4.28;;;;;;;20.73;59.99;99905.44;1770286;80;21342;-60
2023/04/05 11:56:33;;;;;;;11.63;4.55;;;;;;;20.59;59.71;99923.56;1770534;79;21265;-60
2023/04/05 11:59:41;;;;;;;12.43;4.12;;;;;;;20.52;59.79;99918.16;1791428;79;21201;-61
2023/04/05 12:02:49;;;;;;;10.23;4.62;;;;;;;20.54;59.73;99911.80;1799325;78;21703;-63
2023/04/05 12:06:01;;;;;;;10.43;4.83;;;;;;;20.58;59.49;99910.77;1783602;79;21244;-61
2023/04/05 12:09:08;;;;;;;7.50;4.37;;;;;;;20.77;59.58;99906.06;1777797;79;21217;-62
2023/04/05 12:12:19;;;;;;;10.70;4.10;;;;;;;21.05;59.62;99895.41;1757504;81;21220;-60
2023/04/05 12:15:26;;;;;;;12.43;4.47;;;;;;;21.28;59.48;99891.58;1753961;81;21718;-60
2023/04/05 12:18:33;;;;;;;9.68;4.08;;;;;;;21.58;59.46;99891.41;1800768;79;21197;-57
2023/04/05 12:21:40;;;;;;;15.63;4.78;;;;;;;21.87;59.28;99888.75;1782792;79;21213;-57
2023/04/05 12:24:48;;;;;;;9.63;4.40;;;;;;;22.05;58.93;99870.83;1784172;78;21185;-58
2023/04/05 12:27:54;;;;;;;11.08;4.90;;;;;;;22.05;58.43;99878.66;1795454;79;21181;-57
2023/04/05 12:31:01;;;;;;;7.62;3.95;;;;;;;22.08;58.12;99872.55;1801061;79;21765;-58
2023/04/05 12:34:08;;;;;;;11.65;3.80;;;;;;;22.19;57.97;99867.36;1799015;79;21324;-58
2023/04/05 12:37:15;;;;;;;8.30;3.58;;;;;;;22.38;57.79;99872.54;1800973;79;21202;-59
2023/04/05 12:40:23;;;;;;;10.40;4.80;;;;;;;22.45;57.41;99879.61;1775298;79;21232;-60
2023/04/05 12:43:31;;;;;;;11.18;3.70;;;;;;;22.50;57.15;99874.05;1800716;78;21739;-58
2023/04/05 12:46:49;;;;;;;8.13;3.58;;;;;;;22.60;56.91;99877.51;1801170;78;21763;-57
2023/04/05 12:49:55;;;;;;;9.00;3.87;;;;;;;22.73;56.70;99875.67;1796608;79;21755;-58
2023/04/05 12:53:07;;;;;;;8.98;3.47;;;;;;;22.88;56.51;99859.05;1762802;81;21185;-57
2023/04/05 12:56:14;;;;;;;5.75;4.05;;;;;;;22.91;56.19;99863.52;1775724;79;21284;-57
2023/04/05 12:59:20;;;;;;;8.98;4.45;;;;;;;22.96;55.98;99864.14;1764157;80;21433;-57
2023/04/05 13:02:27;;;;;;;13.53;4.25;;;;;;;23.02;55.70;99868.64;1769330;81;21222;-57
2023/04/05 13:05:35;;;;;;;12.13;6.45;;;;;;;23.10;55.57;99862.55;1769591;81;21221;-58
2023/04/05 13:08:43;;;;;;;6.30;4.10;;;;;;;23.21;55.38;99870.70;1769888;80;21653;-57
2023/04/05 13:11:49;;;;;;;6.25;4.62;;;;;;;23.29;55.01;99862.41;1769754;80;21197;-57
2023/04/05 13:14:55;;;;;;;6.00;4.10;;;;;;;23.28;54.68;99855.13;1780706;79;21233;-58
2023/04/05 13:18:02;;;;;;;12.30;4.30;;;;;;;23.21;54.36;99839.97;1787927;79;21181;-57
2023/04/05 13:21:10;;;;;;;8.68;4.50;;;;;;;23.05;53.87;99856.93;1776544;79;21201;-59
2023/04/05 13:24:15;;;;;;;7.90;4.17;;;;;;;22.89;53.63;99857.39;1780084;79;21220;-58
2023/04/05 13:27:21;;;;;;;7.65;3.70;;;;;;;22.71;53.26;99853.61;1785781;79;21762;-58
2023/04/05 13:30:29;;;;;;;8.83;4.22;;;;;;;22.47;53.03;99862.60;1788013;79;21769;-57
2023/04/05 13:33:38;;;;;;;9.75;4.70;;;;;;;22.31;52.93;99859.38;1775852;79;21745;-59
2023/04/05 13:36:43;;;;;;;7.60;4.65;;;;;;;22.18;52.84;99862.88;1787848;78;21241;-59
2023/04/05 13:39:49;;;;;;;12.88;5.00;;;;;;;22.12;52.72;99859.75;1783524;78;21712;-58
2023/04/05 13:42:44;;;;;;;8.70;5.10;;;;;;;22.10;52.64;99853.59;1784337;79;21536;-58
2023/04/05 13:45:51;;;;;;;11.78;5.40;;;;;;;22.13;52.57;99852.23;1795331;79;21594;-59
2023/04/05 13:48:58;;;;;;;10.38;5.08;;;;;;;22.06;52.31;99856.63;1769270;79;21188;-60
2023/04/05 13:52:04;;;;;;;7.25;4.15;;;;;;;21.97;52.13;99852.64;1771677;79;21217;-61
2023/04/05 13:55:10;;;;;;;9.93;4.35;;;;;;;21.82;51.86;99860.81;1774197;79;21815;-58
2023/04/05 13:58:17;;;;;;;6.40;3.95;;;;;;;21.63;51.67;99857.20;1791866;79;21181;-59
2023/04/05 14:01:22;;;;;;;10.88;4.08;;;;;;;21.40;51.43;99861.11;1781471;79;21206;-57
2023/04/05 14:04:27;;;;;;;7.00;4.35;;;;;;;21.19;51.37;99846.62;1767616;81;21501;-56
2023/04/05 14:07:33;;;;;;;11.18;4.97;;;;;;;21.04;51.35;99858.91;1768187;81;21241;-57
2023/04/05 14:10:40;;;;;;;14.25;4.50;;;;;;;20.89;51.32;99851.72;1771450;79;21230;-57
2023/04/05 14:13:46;;;;;;;14.90;4.30;;;;;;;20.76;51.28;99854.84;1800418;79;21165;-58
2023/04/05 14:16:53;;;;;;;10.63;4.78;;;;;;;20.63;51.23;99858.82;1795012;79;21197;-56
2023/04/05 14:20:00;;;;;;;9.93;4.50;;;;;;;20.55;51.19;99846.73;1773959;78;21205;-58
2023/04/05 14:23:05;;;;;;;16.40;5.55;;;;;;;20.48;51.14;99866.08;1769826;79;21515;-57
2023/04/05 14:26:10;;;;;;;14.28;4.53;;;;;;;20.33;51.04;99862.48;1755637;81;21224;-58
2023/04/05 14:29:20;;;;;;;11.08;4.40;;;;;;;20.20;50.97;99861.98;1734088;82;21176;-59
2023/04/05 14:32:27;;;;;;;12.70;4.17;;;;;;;20.04;50.92;99866.92;1740323;81;21212;-58
2023/04/05 14:35:33;;;;;;;13.25;4.67;;;;;;;19.91;50.84;99865.84;1720860;82;21211;-58